Grand Rapids, MI

1:50 AM EST on February 12, 2016 (GMT -0500)
Cascade Township | | Change Station
CLOSE
Current Station
Personal Weather Station
Location: Ada, MI
Elevation: 719 ft
Nearby Weather Stations
Active Advisory: Winter Weather Advisory Active Notice: Local Storm Report

Elev 719 ft 42.89 °N, 85.47 °W | Updated 3 seconds ago

Overcast
Overcast
14.9 °F
Feels Like 15 °F
N
0.0
Wind Variable Wind from South
Gusts 0.0 mph

Today
High -- | Low -- °F
--% Chance of Precip.
Yesterday
High -- | Low -- °F
Precip. -- in
Pressure 30.22 in
Visibility 10.0 miles
Clouds Overcast 8500 ft
Windchill 15 °F
Dew Point 2 °F
Humidity 56%
Rainfall 0.00 in
Snow Depth Not available.
7:44 AM 6:09 PM
Waxing Crescent, 18% visible
METAR KGRR 120553Z AUTO 20007KT 10SM OVC085 M09/M13 A3018 RMK AO2 SLP234 60000 T10891128 11072 21094 58017
Pressure 30.22 in
Visibility 10.0 miles
Clouds Overcast 8500 ft
Windchill 15 °F
Dew Point 2 °F
Humidity 56%
Rainfall 0.00 in
Snow Depth Not available.
7:44 AM 6:09 PM
Waxing Crescent, 18% visible
METAR KGRR 120553Z AUTO 20007KT 10SM OVC085 M09/M13 A3018 RMK AO2 SLP234 60000 T10891128 11072 21094 58017

10-Day Weather Forecast

Almanac

Astronomy

Feb. 12, 2016 Rise Set
Actual Time
Civil Twilight
Nautical Twilight
Astronomical Twilight
Moon
Length of Visible Light
Length of Day
Tomorrow will be .
, % of the Moon is Illuminated

Today's Extremes

State Highs State Lows

Community

WunderPhotos

Upload Photos

1,892,276 photos uploaded!

WunderBlog® & News

Nearby

Air Quality

  Air Quality AQ Index Pollutant
Not available.

Snow Depth

Station Depth Elevation

Earthquake Activity

City Distance Mag. Time & Date
Minimum magnitude displayed is 2.5.

Coastal Water Temperatures

Place Temperature

Stations

Nearby Weather Stations

Station Location Temp. Windchill Dew Point Humidity Wind Precip. Elev Updated Type
                   

Watches & Warnings

Winter Weather Advisory
Issued: 9:27 PM EST Feb. 11, 2016 – National Weather Service

... Winter Weather Advisory remains in effect from 7 am to 7 PM
EST Friday...

Hazardous weather...

* snow begins around the Friday morning commute.

* Total snow 2 to 4 inches.

* Gusty winds in the afternoon will result in blowing snow.

Impacts...

* hazardous travel from mid morning Friday through Friday
   evening.

* Accidents and slideoffs due to slippery roads and low
   visibilities.

Precautionary/preparedness actions...

* the Michigan Department of Transportation reminds motorists
   to adjust speeds based on the conditions... and to take it
   slow in ice and snow.